sensor_id;sensor_type;location;lat;lon;timestamp;P1;durP1;ratioP1;P2;durP2;ratioP2
21894;SDS011;11112;51.270;7.224;2023-03-31T00:02:23;6.60;;;1.42;;
21894;SDS011;11112;51.270;7.224;2023-03-31T00:04:53;6.10;;;1.33;;
21894;SDS011;11112;51.270;7.224;2023-03-31T00:07:25;7.25;;;1.15;;
21894;SDS011;11112;51.270;7.224;2023-03-31T00:09:52;5.40;;;1.00;;
21894;SDS011;11112;51.270;7.224;2023-03-31T00:12:21;7.18;;;1.35;;
21894;SDS011;11112;51.270;7.224;2023-03-31T00:14:49;8.13;;;1.40;;
21894;SDS011;11112;51.270;7.224;2023-03-31T00:17:16;8.68;;;1.33;;
21894;SDS011;11112;51.270;7.224;2023-03-31T00:19:46;8.73;;;1.55;;
21894;SDS011;11112;51.270;7.224;2023-03-31T00:22:14;6.60;;;1.58;;
21894;SDS011;11112;51.270;7.224;2023-03-31T00:24:44;6.40;;;1.30;;
21894;SDS011;11112;51.270;7.224;2023-03-31T00:27:11;7.88;;;1.55;;
21894;SDS011;11112;51.270;7.224;2023-03-31T00:29:38;8.07;;;1.30;;
21894;SDS011;11112;51.270;7.224;2023-03-31T00:32:07;6.60;;;1.35;;
21894;SDS011;11112;51.270;7.224;2023-03-31T00:34:35;5.03;;;1.25;;
21894;SDS011;11112;51.270;7.224;2023-03-31T00:37:02;5.03;;;1.15;;
21894;SDS011;11112;51.270;7.224;2023-03-31T00:39:30;7.20;;;1.33;;
21894;SDS011;11112;51.270;7.224;2023-03-31T00:42:01;6.00;;;1.33;;
21894;SDS011;11112;51.270;7.224;2023-03-31T00:44:37;5.93;;;1.30;;
21894;SDS011;11112;51.270;7.224;2023-03-31T00:47:49;7.47;;;1.45;;
21894;SDS011;11112;51.270;7.224;2023-03-31T00:50:21;7.53;;;1.40;;
21894;SDS011;11112;51.270;7.224;2023-03-31T00:52:53;7.97;;;1.45;;
21894;SDS011;11112;51.270;7.224;2023-03-31T00:55:24;8.65;;;1.60;;
21894;SDS011;11112;51.270;7.224;2023-03-31T00:57:57;6.93;;;1.38;;
21894;SDS011;11112;51.270;7.224;2023-03-31T01:00:27;7.95;;;1.30;;
21894;SDS011;11112;51.270;7.224;2023-03-31T01:02:58;4.90;;;1.17;;
21894;SDS011;11112;51.270;7.224;2023-03-31T01:05:31;5.43;;;1.30;;
21894;SDS011;11112;51.270;7.224;2023-03-31T01:08:02;7.50;;;1.50;;
21894;SDS011;11112;51.270;7.224;2023-03-31T01:10:32;5.65;;;1.42;;
21894;SDS011;11112;51.270;7.224;2023-03-31T01:13:06;7.97;;;1.55;;
21894;SDS011;11112;51.270;7.224;2023-03-31T01:15:35;6.72;;;1.40;;
21894;SDS011;11112;51.270;7.224;2023-03-31T01:18:04;4.82;;;1.30;;
21894;SDS011;11112;51.270;7.224;2023-03-31T01:20:35;9.88;;;1.60;;
21894;SDS011;11112;51.270;7.224;2023-03-31T01:23:33;6.13;;;1.17;;
21894;SDS011;11112;51.270;7.224;2023-03-31T01:26:33;6.63;;;1.30;;
21894;SDS011;11112;51.270;7.224;2023-03-31T01:35:40;9.57;;;1.92;;
21894;SDS011;11112;51.270;7.224;2023-03-31T01:41:55;8.55;;;1.65;;
21894;SDS011;11112;51.270;7.224;2023-03-31T01:44:32;6.90;;;1.80;;
21894;SDS011;11112;51.270;7.224;2023-03-31T01:47:11;6.38;;;1.60;;
21894;SDS011;11112;51.270;7.224;2023-03-31T01:49:49;7.72;;;1.58;;
21894;SDS011;11112;51.270;7.224;2023-03-31T01:52:23;7.53;;;1.30;;
21894;SDS011;11112;51.270;7.224;2023-03-31T01:54:58;8.95;;;1.60;;
21894;SDS011;11112;51.270;7.224;2023-03-31T01:57:35;9.50;;;1.40;;
21894;SDS011;11112;51.270;7.224;2023-03-31T02:00:06;7.15;;;1.40;;
21894;SDS011;11112;51.270;7.224;2023-03-31T02:02:37;7.28;;;1.55;;
21894;SDS011;11112;51.270;7.224;2023-03-31T02:05:11;8.48;;;1.40;;
21894;SDS011;11112;51.270;7.224;2023-03-31T02:07:45;7.43;;;1.63;;
21894;SDS011;11112;51.270;7.224;2023-03-31T02:10:18;7.57;;;1.40;;
21894;SDS011;11112;51.270;7.224;2023-03-31T02:12:49;9.77;;;1.58;;
21894;SDS011;11112;51.270;7.224;2023-03-31T02:15:19;6.40;;;1.30;;
21894;SDS011;11112;51.270;7.224;2023-03-31T02:17:52;10.00;;;1.70;;
21894;SDS011;11112;51.270;7.224;2023-03-31T02:20:22;6.60;;;1.40;;
21894;SDS011;11112;51.270;7.224;2023-03-31T02:22:51;8.27;;;1.48;;
21894;SDS011;11112;51.270;7.224;2023-03-31T02:25:22;8.77;;;1.60;;
21894;SDS011;11112;51.270;7.224;2023-03-31T02:30:26;7.95;;;1.60;;
21894;SDS011;11112;51.270;7.224;2023-03-31T02:33:02;10.32;;;2.17;;
21894;SDS011;11112;51.270;7.224;2023-03-31T02:35:29;8.48;;;1.35;;
21894;SDS011;11112;51.270;7.224;2023-03-31T02:37:59;6.93;;;1.23;;
21894;SDS011;11112;51.270;7.224;2023-03-31T02:40:26;9.50;;;1.90;;
21894;SDS011;11112;51.270;7.224;2023-03-31T02:43:01;8.65;;;1.50;;
21894;SDS011;11112;51.270;7.224;2023-03-31T02:45:41;9.23;;;1.50;;
21894;SDS011;11112;51.270;7.224;2023-03-31T02:48:11;11.10;;;1.48;;
21894;SDS011;11112;51.270;7.224;2023-03-31T02:54:11;6.85;;;1.40;;
21894;SDS011;11112;51.270;7.224;2023-03-31T02:57:00;10.90;;;1.70;;
21894;SDS011;11112;51.270;7.224;2023-03-31T02:59:50;8.17;;;1.30;;
21894;SDS011;11112;51.270;7.224;2023-03-31T03:02:37;10.77;;;1.52;;
21894;SDS011;11112;51.270;7.224;2023-03-31T03:05:18;10.57;;;1.70;;
21894;SDS011;11112;51.270;7.224;2023-03-31T03:08:01;8.90;;;2.53;;
21894;SDS011;11112;51.270;7.224;2023-03-31T03:10:43;11.10;;;2.17;;
21894;SDS011;11112;51.270;7.224;2023-03-31T03:13:25;8.70;;;2.38;;
21894;SDS011;11112;51.270;7.224;2023-03-31T03:15:59;9.52;;;2.10;;
21894;SDS011;11112;51.270;7.224;2023-03-31T03:18:30;6.20;;;1.40;;
21894;SDS011;11112;51.270;7.224;2023-03-31T03:20:58;8.73;;;1.60;;
21894;SDS011;11112;51.270;7.224;2023-03-31T03:23:25;7.63;;;1.75;;
21894;SDS011;11112;51.270;7.224;2023-03-31T03:25:52;7.68;;;1.58;;
21894;SDS011;11112;51.270;7.224;2023-03-31T03:28:20;10.60;;;1.73;;
21894;SDS011;11112;51.270;7.224;2023-03-31T03:30:49;9.38;;;1.75;;
21894;SDS011;11112;51.270;7.224;2023-03-31T03:33:18;9.70;;;1.60;;
21894;SDS011;11112;51.270;7.224;2023-03-31T03:35:49;9.75;;;1.60;;
21894;SDS011;11112;51.270;7.224;2023-03-31T03:38:16;10.50;;;1.60;;
21894;SDS011;11112;51.270;7.224;2023-03-31T03:40:43;8.05;;;1.50;;
21894;SDS011;11112;51.270;7.224;2023-03-31T03:43:11;8.07;;;1.60;;
21894;SDS011;11112;51.270;7.224;2023-03-31T03:45:38;10.50;;;1.92;;
21894;SDS011;11112;51.270;7.224;2023-03-31T03:48:05;10.75;;;1.77;;
21894;SDS011;11112;51.270;7.224;2023-03-31T03:50:35;10.43;;;1.90;;
21894;SDS011;11112;51.270;7.224;2023-03-31T03:53:03;8.27;;;1.60;;
21894;SDS011;11112;51.270;7.224;2023-03-31T03:55:30;10.73;;;1.80;;
21894;SDS011;11112;51.270;7.224;2023-03-31T03:57:57;8.68;;;1.50;;
21894;SDS011;11112;51.270;7.224;2023-03-31T04:00:24;10.43;;;1.55;;
21894;SDS011;11112;51.270;7.224;2023-03-31T04:02:51;9.25;;;1.80;;
21894;SDS011;11112;51.270;7.224;2023-03-31T04:05:18;10.90;;;1.77;;
21894;SDS011;11112;51.270;7.224;2023-03-31T04:07:47;10.57;;;2.10;;
21894;SDS011;11112;51.270;7.224;2023-03-31T04:10:14;11.52;;;2.03;;
21894;SDS011;11112;51.270;7.224;2023-03-31T04:12:42;8.20;;;1.63;;
21894;SDS011;11112;51.270;7.224;2023-03-31T04:15:09;10.23;;;1.70;;
21894;SDS011;11112;51.270;7.224;2023-03-31T04:17:37;9.68;;;1.80;;
21894;SDS011;11112;51.270;7.224;2023-03-31T04:20:05;13.15;;;1.80;;
21894;SDS011;11112;51.270;7.224;2023-03-31T04:22:37;9.13;;;1.77;;
21894;SDS011;11112;51.270;7.224;2023-03-31T04:25:08;10.18;;;2.28;;
21894;SDS011;11112;51.270;7.224;2023-03-31T04:27:40;10.98;;;1.70;;
21894;SDS011;11112;51.270;7.224;2023-03-31T04:30:11;7.38;;;1.75;;
21894;SDS011;11112;51.270;7.224;2023-03-31T04:32:46;12.73;;;1.75;;
21894;SDS011;11112;51.270;7.224;2023-03-31T04:35:15;10.43;;;1.48;;
21894;SDS011;11112;51.270;7.224;2023-03-31T04:37:44;10.52;;;1.92;;
21894;SDS011;11112;51.270;7.224;2023-03-31T04:40:14;10.15;;;1.83;;
21894;SDS011;11112;51.270;7.224;2023-03-31T04:42:42;7.30;;;1.38;;
21894;SDS011;11112;51.270;7.224;2023-03-31T04:45:10;8.05;;;1.88;;
21894;SDS011;11112;51.270;7.224;2023-03-31T04:47:37;7.40;;;1.63;;
21894;SDS011;11112;51.270;7.224;2023-03-31T04:50:05;9.23;;;1.50;;
21894;SDS011;11112;51.270;7.224;2023-03-31T04:52:34;11.02;;;1.80;;
21894;SDS011;11112;51.270;7.224;2023-03-31T04:55:01;9.13;;;1.48;;
21894;SDS011;11112;51.270;7.224;2023-03-31T04:57:31;7.68;;;1.40;;
21894;SDS011;11112;51.270;7.224;2023-03-31T04:59:59;8.77;;;1.55;;
21894;SDS011;11112;51.270;7.224;2023-03-31T05:02:26;8.88;;;1.70;;
21894;SDS011;11112;51.270;7.224;2023-03-31T05:04:53;12.18;;;2.03;;
21894;SDS011;11112;51.270;7.224;2023-03-31T05:07:20;7.80;;;1.33;;
21894;SDS011;11112;51.270;7.224;2023-03-31T05:09:48;7.90;;;1.38;;
21894;SDS011;11112;51.270;7.224;2023-03-31T05:12:15;8.70;;;1.73;;
21894;SDS011;11112;51.270;7.224;2023-03-31T05:14:43;8.07;;;1.67;;
21894;SDS011;11112;51.270;7.224;2023-03-31T05:17:10;8.38;;;1.60;;
21894;SDS011;11112;51.270;7.224;2023-03-31T05:19:37;8.73;;;1.65;;
21894;SDS011;11112;51.270;7.224;2023-03-31T05:22:04;6.93;;;1.58;;
21894;SDS011;11112;51.270;7.224;2023-03-31T05:24:32;9.40;;;1.60;;
21894;SDS011;11112;51.270;7.224;2023-03-31T05:26:59;7.53;;;1.35;;
21894;SDS011;11112;51.270;7.224;2023-03-31T05:29:26;8.48;;;1.67;;
21894;SDS011;11112;51.270;7.224;2023-03-31T05:31:55;9.52;;;1.90;;
21894;SDS011;11112;51.270;7.224;2023-03-31T05:34:22;7.22;;;1.48;;
21894;SDS011;11112;51.270;7.224;2023-03-31T05:36:49;8.18;;;1.65;;
21894;SDS011;11112;51.270;7.224;2023-03-31T05:39:21;9.25;;;1.67;;
21894;SDS011;11112;51.270;7.224;2023-03-31T05:41:48;9.85;;;1.58;;
21894;SDS011;11112;51.270;7.224;2023-03-31T05:44:15;8.77;;;1.65;;
21894;SDS011;11112;51.270;7.224;2023-03-31T05:46:44;9.60;;;2.00;;
21894;SDS011;11112;51.270;7.224;2023-03-31T05:49:15;6.20;;;1.50;;
21894;SDS011;11112;51.270;7.224;2023-03-31T05:51:42;7.15;;;1.40;;
21894;SDS011;11112;51.270;7.224;2023-03-31T05:54:09;7.40;;;1.50;;
21894;SDS011;11112;51.270;7.224;2023-03-31T05:56:37;8.15;;;1.52;;
21894;SDS011;11112;51.270;7.224;2023-03-31T05:59:04;6.90;;;1.70;;
21894;SDS011;11112;51.270;7.224;2023-03-31T06:01:31;9.55;;;1.60;;
21894;SDS011;11112;51.270;7.224;2023-03-31T06:03:58;9.23;;;1.23;;
21894;SDS011;11112;51.270;7.224;2023-03-31T06:06:27;5.32;;;1.10;;
21894;SDS011;11112;51.270;7.224;2023-03-31T06:08:54;7.07;;;1.30;;
21894;SDS011;11112;51.270;7.224;2023-03-31T06:11:21;4.70;;;1.10;;
21894;SDS011;11112;51.270;7.224;2023-03-31T06:13:48;4.80;;;1.10;;
21894;SDS011;11112;51.270;7.224;2023-03-31T06:16:15;5.65;;;1.15;;
21894;SDS011;11112;51.270;7.224;2023-03-31T06:18:43;5.75;;;1.10;;
21894;SDS011;11112;51.270;7.224;2023-03-31T06:21:11;6.65;;;1.30;;
21894;SDS011;11112;51.270;7.224;2023-03-31T06:23:42;5.63;;;1.25;;
21894;SDS011;11112;51.270;7.224;2023-03-31T06:26:11;7.82;;;1.70;;
21894;SDS011;11112;51.270;7.224;2023-03-31T06:28:39;5.47;;;0.98;;
21894;SDS011;11112;51.270;7.224;2023-03-31T06:31:07;4.75;;;1.17;;
21894;SDS011;11112;51.270;7.224;2023-03-31T06:33:37;5.55;;;1.35;;
21894;SDS011;11112;51.270;7.224;2023-03-31T06:36:05;8.13;;;1.42;;
21894;SDS011;11112;51.270;7.224;2023-03-31T06:38:33;6.53;;;1.40;;
21894;SDS011;11112;51.270;7.224;2023-03-31T06:41:03;4.90;;;1.25;;
21894;SDS011;11112;51.270;7.224;2023-03-31T06:43:31;5.40;;;1.45;;
21894;SDS011;11112;51.270;7.224;2023-03-31T06:45:58;6.03;;;1.30;;
21894;SDS011;11112;51.270;7.224;2023-03-31T06:48:25;5.95;;;1.15;;
21894;SDS011;11112;51.270;7.224;2023-03-31T06:50:54;4.97;;;1.20;;
21894;SDS011;11112;51.270;7.224;2023-03-31T06:53:24;4.70;;;1.00;;
21894;SDS011;11112;51.270;7.224;2023-03-31T06:55:52;4.65;;;0.98;;
21894;SDS011;11112;51.270;7.224;2023-03-31T06:58:20;5.35;;;1.10;;
21894;SDS011;11112;51.270;7.224;2023-03-31T07:00:48;6.07;;;1.20;;
21894;SDS011;11112;51.270;7.224;2023-03-31T07:03:16;5.57;;;1.17;;
21894;SDS011;11112;51.270;7.224;2023-03-31T07:05:47;5.72;;;1.05;;
21894;SDS011;11112;51.270;7.224;2023-03-31T07:08:15;5.32;;;1.02;;
21894;SDS011;11112;51.270;7.224;2023-03-31T07:10:43;6.38;;;0.82;;
21894;SDS011;11112;51.270;7.224;2023-03-31T07:13:12;5.70;;;0.93;;
21894;SDS011;11112;51.270;7.224;2023-03-31T07:15:41;3.00;;;0.80;;
21894;SDS011;11112;51.270;7.224;2023-03-31T07:18:09;3.17;;;0.73;;
21894;SDS011;11112;51.270;7.224;2023-03-31T07:20:39;3.85;;;0.70;;
21894;SDS011;11112;51.270;7.224;2023-03-31T07:23:07;4.25;;;0.70;;
21894;SDS011;11112;51.270;7.224;2023-03-31T07:25:35;2.63;;;0.70;;
21894;SDS011;11112;51.270;7.224;2023-03-31T07:28:02;3.17;;;0.80;;
21894;SDS011;11112;51.270;7.224;2023-03-31T07:30:30;3.67;;;0.80;;
21894;SDS011;11112;51.270;7.224;2023-03-31T07:32:58;2.42;;;0.73;;
21894;SDS011;11112;51.270;7.224;2023-03-31T07:35:26;4.57;;;1.10;;
21894;SDS011;11112;51.270;7.224;2023-03-31T07:37:54;4.95;;;1.20;;
21894;SDS011;11112;51.270;7.224;2023-03-31T07:40:21;8.60;;;0.90;;
21894;SDS011;11112;51.270;7.224;2023-03-31T07:42:51;5.50;;;0.80;;
21894;SDS011;11112;51.270;7.224;2023-03-31T07:45:22;3.05;;;0.75;;
21894;SDS011;11112;51.270;7.224;2023-03-31T07:47:51;4.22;;;0.88;;
21894;SDS011;11112;51.270;7.224;2023-03-31T07:50:21;5.25;;;1.27;;
21894;SDS011;11112;51.270;7.224;2023-03-31T07:52:51;5.25;;;0.90;;
21894;SDS011;11112;51.270;7.224;2023-03-31T07:55:20;3.38;;;0.63;;
21894;SDS011;11112;51.270;7.224;2023-03-31T07:57:51;2.20;;;0.68;;
21894;SDS011;11112;51.270;7.224;2023-03-31T08:00:22;4.72;;;1.10;;
21894;SDS011;11112;51.270;7.224;2023-03-31T08:02:53;2.38;;;0.80;;
21894;SDS011;11112;51.270;7.224;2023-03-31T08:05:25;3.28;;;1.48;;
21894;SDS011;11112;51.270;7.224;2023-03-31T08:07:56;1.88;;;0.80;;
21894;SDS011;11112;51.270;7.224;2023-03-31T08:10:27;2.95;;;0.80;;
21894;SDS011;11112;51.270;7.224;2023-03-31T08:12:57;3.20;;;1.13;;
21894;SDS011;11112;51.270;7.224;2023-03-31T08:15:28;2.42;;;0.70;;
21894;SDS011;11112;51.270;7.224;2023-03-31T08:17:58;3.08;;;0.70;;
21894;SDS011;11112;51.270;7.224;2023-03-31T08:20:31;4.00;;;0.90;;
21894;SDS011;11112;51.270;7.224;2023-03-31T08:23:03;2.92;;;0.80;;
21894;SDS011;11112;51.270;7.224;2023-03-31T08:25:35;3.08;;;1.33;;
21894;SDS011;11112;51.270;7.224;2023-03-31T08:28:06;3.30;;;0.60;;
21894;SDS011;11112;51.270;7.224;2023-03-31T08:30:39;4.22;;;1.10;;
21894;SDS011;11112;51.270;7.224;2023-03-31T08:33:09;3.55;;;0.70;;
21894;SDS011;11112;51.270;7.224;2023-03-31T08:35:41;2.28;;;0.70;;
21894;SDS011;11112;51.270;7.224;2023-03-31T08:38:11;3.60;;;0.60;;
21894;SDS011;11112;51.270;7.224;2023-03-31T08:40:40;2.22;;;0.70;;
21894;SDS011;11112;51.270;7.224;2023-03-31T08:43:10;3.08;;;0.70;;
21894;SDS011;11112;51.270;7.224;2023-03-31T08:45:45;4.50;;;0.73;;
21894;SDS011;11112;51.270;7.224;2023-03-31T08:48:19;2.67;;;0.70;;
21894;SDS011;11112;51.270;7.224;2023-03-31T08:50:54;3.50;;;0.65;;
21894;SDS011;11112;51.270;7.224;2023-03-31T08:53:30;3.05;;;0.60;;
21894;SDS011;11112;51.270;7.224;2023-03-31T08:56:05;2.88;;;0.60;;
21894;SDS011;11112;51.270;7.224;2023-03-31T08:58:41;4.47;;;0.70;;
21894;SDS011;11112;51.270;7.224;2023-03-31T09:01:15;2.92;;;0.70;;
21894;SDS011;11112;51.270;7.224;2023-03-31T09:04:01;3.90;;;0.68;;
21894;SDS011;11112;51.270;7.224;2023-03-31T09:06:51;3.75;;;0.70;;
21894;SDS011;11112;51.270;7.224;2023-03-31T09:09:31;3.78;;;0.90;;
21894;SDS011;11112;51.270;7.224;2023-03-31T09:12:12;4.43;;;0.90;;
21894;SDS011;11112;51.270;7.224;2023-03-31T09:14:46;3.05;;;0.60;;
21894;SDS011;11112;51.270;7.224;2023-03-31T09:17:23;4.05;;;0.70;;
21894;SDS011;11112;51.270;7.224;2023-03-31T09:19:58;6.18;;;1.00;;
21894;SDS011;11112;51.270;7.224;2023-03-31T09:22:36;3.83;;;0.80;;
21894;SDS011;11112;51.270;7.224;2023-03-31T09:25:09;6.00;;;1.20;;
21894;SDS011;11112;51.270;7.224;2023-03-31T09:27:44;2.55;;;0.82;;
21894;SDS011;11112;51.270;7.224;2023-03-31T09:30:13;4.93;;;1.00;;
21894;SDS011;11112;51.270;7.224;2023-03-31T09:32:48;5.50;;;1.02;;
21894;SDS011;11112;51.270;7.224;2023-03-31T09:35:25;3.83;;;0.85;;
21894;SDS011;11112;51.270;7.224;2023-03-31T09:37:59;3.42;;;0.88;;
21894;SDS011;11112;51.270;7.224;2023-03-31T09:40:29;4.95;;;1.00;;
21894;SDS011;11112;51.270;7.224;2023-03-31T09:42:59;3.63;;;1.08;;
21894;SDS011;11112;51.270;7.224;2023-03-31T09:45:32;5.15;;;1.05;;
21894;SDS011;11112;51.270;7.224;2023-03-31T09:48:02;5.22;;;1.20;;
21894;SDS011;11112;51.270;7.224;2023-03-31T09:50:39;7.68;;;1.25;;
21894;SDS011;11112;51.270;7.224;2023-03-31T09:53:16;7.95;;;1.50;;
21894;SDS011;11112;51.270;7.224;2023-03-31T09:55:51;8.18;;;1.67;;
21894;SDS011;11112;51.270;7.224;2023-03-31T09:58:23;11.35;;;2.17;;
21894;SDS011;11112;51.270;7.224;2023-03-31T10:00:56;5.18;;;1.52;;
21894;SDS011;11112;51.270;7.224;2023-03-31T10:03:30;11.52;;;2.10;;
21894;SDS011;11112;51.270;7.224;2023-03-31T10:06:01;8.25;;;1.92;;
21894;SDS011;11112;51.270;7.224;2023-03-31T10:08:39;11.40;;;1.95;;
21894;SDS011;11112;51.270;7.224;2023-03-31T10:11:11;13.10;;;2.22;;
21894;SDS011;11112;51.270;7.224;2023-03-31T10:13:43;10.90;;;2.20;;
21894;SDS011;11112;51.270;7.224;2023-03-31T10:16:20;12.30;;;2.10;;
21894;SDS011;11112;51.270;7.224;2023-03-31T10:18:55;12.00;;;2.67;;
21894;SDS011;11112;51.270;7.224;2023-03-31T10:21:41;12.52;;;2.42;;
21894;SDS011;11112;51.270;7.224;2023-03-31T10:24:18;12.73;;;2.63;;
21894;SDS011;11112;51.270;7.224;2023-03-31T10:26:47;13.98;;;2.30;;
21894;SDS011;11112;51.270;7.224;2023-03-31T10:29:22;10.77;;;2.33;;
21894;SDS011;11112;51.270;7.224;2023-03-31T10:32:01;13.45;;;2.85;;
21894;SDS011;11112;51.270;7.224;2023-03-31T10:34:35;11.07;;;2.33;;
21894;SDS011;11112;51.270;7.224;2023-03-31T10:37:09;10.02;;;2.35;;
21894;SDS011;11112;51.270;7.224;2023-03-31T10:39:43;10.50;;;2.15;;
21894;SDS011;11112;51.270;7.224;2023-03-31T10:42:18;12.18;;;2.13;;
21894;SDS011;11112;51.270;7.224;2023-03-31T10:44:47;9.57;;;2.10;;
21894;SDS011;11112;51.270;7.224;2023-03-31T10:47:17;10.63;;;2.05;;
21894;SDS011;11112;51.270;7.224;2023-03-31T10:49:48;12.32;;;2.13;;
21894;SDS011;11112;51.270;7.224;2023-03-31T10:52:18;10.00;;;2.03;;
21894;SDS011;11112;51.270;7.224;2023-03-31T10:54:50;11.13;;;2.05;;
21894;SDS011;11112;51.270;7.224;2023-03-31T10:57:24;7.97;;;2.00;;
21894;SDS011;11112;51.270;7.224;2023-03-31T11:00:11;10.15;;;2.13;;
21894;SDS011;11112;51.270;7.224;2023-03-31T11:05:42;14.35;;;2.70;;
21894;SDS011;11112;51.270;7.224;2023-03-31T11:08:21;13.10;;;2.60;;
21894;SDS011;11112;51.270;7.224;2023-03-31T11:11:10;12.13;;;2.60;;
21894;SDS011;11112;51.270;7.224;2023-03-31T11:13:51;16.77;;;2.67;;
21894;SDS011;11112;51.270;7.224;2023-03-31T11:16:29;10.35;;;2.45;;
21894;SDS011;11112;51.270;7.224;2023-03-31T11:19:17;9.88;;;2.50;;
21894;SDS011;11112;51.270;7.224;2023-03-31T11:21:57;11.82;;;2.40;;
21894;SDS011;11112;51.270;7.224;2023-03-31T11:24:41;6.03;;;1.42;;
21894;SDS011;11112;51.270;7.224;2023-03-31T11:27:42;5.88;;;1.10;;
21894;SDS011;11112;51.270;7.224;2023-03-31T11:30:27;6.10;;;1.13;;
21894;SDS011;11112;51.270;7.224;2023-03-31T11:33:04;4.50;;;0.77;;
21894;SDS011;11112;51.270;7.224;2023-03-31T11:35:53;3.92;;;0.93;;
21894;SDS011;11112;51.270;7.224;2023-03-31T11:38:43;4.32;;;1.00;;
21894;SDS011;11112;51.270;7.224;2023-03-31T11:41:26;3.28;;;0.90;;
21894;SDS011;11112;51.270;7.224;2023-03-31T11:44:02;5.72;;;0.90;;
21894;SDS011;11112;51.270;7.224;2023-03-31T11:46:34;5.90;;;1.00;;
21894;SDS011;11112;51.270;7.224;2023-03-31T11:49:09;5.47;;;0.95;;
21894;SDS011;11112;51.270;7.224;2023-03-31T11:51:46;4.38;;;1.13;;
21894;SDS011;11112;51.270;7.224;2023-03-31T11:54:19;5.03;;;1.08;;
21894;SDS011;11112;51.270;7.224;2023-03-31T11:56:54;7.53;;;1.30;;
21894;SDS011;11112;51.270;7.224;2023-03-31T11:59:24;4.15;;;1.00;;
21894;SDS011;11112;51.270;7.224;2023-03-31T12:01:56;3.57;;;1.00;;
21894;SDS011;11112;51.270;7.224;2023-03-31T12:04:36;4.25;;;1.05;;
21894;SDS011;11112;51.270;7.224;2023-03-31T12:07:12;4.20;;;0.98;;
21894;SDS011;11112;51.270;7.224;2023-03-31T12:09:50;7.32;;;1.58;;
21894;SDS011;11112;51.270;7.224;2023-03-31T12:12:27;4.88;;;1.10;;
21894;SDS011;11112;51.270;7.224;2023-03-31T12:15:02;6.57;;;1.30;;
21894;SDS011;11112;51.270;7.224;2023-03-31T12:17:40;5.45;;;1.30;;
21894;SDS011;11112;51.270;7.224;2023-03-31T12:20:11;8.30;;;1.40;;
21894;SDS011;11112;51.270;7.224;2023-03-31T12:22:46;5.43;;;1.40;;
21894;SDS011;11112;51.270;7.224;2023-03-31T12:25:15;7.53;;;1.55;;
21894;SDS011;11112;51.270;7.224;2023-03-31T12:27:50;8.95;;;1.90;;
21894;SDS011;11112;51.270;7.224;2023-03-31T12:30:21;8.60;;;1.52;;
21894;SDS011;11112;51.270;7.224;2023-03-31T12:33:00;9.77;;;1.73;;
21894;SDS011;11112;51.270;7.224;2023-03-31T12:35:33;6.57;;;1.42;;
21894;SDS011;11112;51.270;7.224;2023-03-31T12:38:20;9.57;;;2.00;;
21894;SDS011;11112;51.270;7.224;2023-03-31T12:40:57;5.22;;;1.50;;
21894;SDS011;11112;51.270;7.224;2023-03-31T12:43:42;6.97;;;1.75;;
21894;SDS011;11112;51.270;7.224;2023-03-31T12:50:08;6.82;;;1.83;;
21894;SDS011;11112;51.270;7.224;2023-03-31T12:52:55;7.88;;;1.85;;
21894;SDS011;11112;51.270;7.224;2023-03-31T12:55:36;6.53;;;1.63;;
21894;SDS011;11112;51.270;7.224;2023-03-31T13:01:09;10.63;;;2.03;;
21894;SDS011;11112;51.270;7.224;2023-03-31T13:03:55;9.45;;;2.13;;
21894;SDS011;11112;51.270;7.224;2023-03-31T13:06:52;7.55;;;2.00;;
21894;SDS011;11112;51.270;7.224;2023-03-31T13:09:39;7.43;;;2.00;;
21894;SDS011;11112;51.270;7.224;2023-03-31T13:12:13;9.57;;;2.03;;
21894;SDS011;11112;51.270;7.224;2023-03-31T13:14:44;6.97;;;1.77;;
21894;SDS011;11112;51.270;7.224;2023-03-31T13:19:51;7.85;;;1.65;;
21894;SDS011;11112;51.270;7.224;2023-03-31T13:22:29;9.45;;;1.65;;
21894;SDS011;11112;51.270;7.224;2023-03-31T13:28:14;9.98;;;1.92;;
21894;SDS011;11112;51.270;7.224;2023-03-31T13:31:03;10.48;;;1.75;;
21894;SDS011;11112;51.270;7.224;2023-03-31T13:33:33;6.93;;;1.67;;
21894;SDS011;11112;51.270;7.224;2023-03-31T13:39:41;11.65;;;2.08;;
21894;SDS011;11112;51.270;7.224;2023-03-31T13:42:36;12.90;;;2.40;;
21894;SDS011;11112;51.270;7.224;2023-03-31T13:45:41;12.43;;;2.47;;
21894;SDS011;11112;51.270;7.224;2023-03-31T13:48:54;10.93;;;2.28;;
21894;SDS011;11112;51.270;7.224;2023-03-31T13:51:51;8.48;;;2.03;;
21894;SDS011;11112;51.270;7.224;2023-03-31T13:57:43;9.40;;;2.00;;
21894;SDS011;11112;51.270;7.224;2023-03-31T14:00:39;8.70;;;1.42;;
21894;SDS011;11112;51.270;7.224;2023-03-31T14:03:19;7.72;;;1.70;;
21894;SDS011;11112;51.270;7.224;2023-03-31T14:06:03;9.68;;;1.95;;
21894;SDS011;11112;51.270;7.224;2023-03-31T14:08:45;6.72;;;1.52;;
21894;SDS011;11112;51.270;7.224;2023-03-31T14:11:19;6.35;;;1.55;;
21894;SDS011;11112;51.270;7.224;2023-03-31T14:16:35;6.70;;;1.40;;
21894;SDS011;11112;51.270;7.224;2023-03-31T14:19:14;5.20;;;1.38;;
21894;SDS011;11112;51.270;7.224;2023-03-31T14:22:11;8.20;;;1.60;;
21894;SDS011;11112;51.270;7.224;2023-03-31T14:24:51;8.70;;;1.80;;
21894;SDS011;11112;51.270;7.224;2023-03-31T14:27:38;6.23;;;1.80;;
21894;SDS011;11112;51.270;7.224;2023-03-31T14:30:22;10.13;;;2.00;;
21894;SDS011;11112;51.270;7.224;2023-03-31T14:33:10;7.90;;;1.80;;
21894;SDS011;11112;51.270;7.224;2023-03-31T14:35:53;9.35;;;1.98;;
21894;SDS011;11112;51.270;7.224;2023-03-31T14:38:26;8.73;;;2.10;;
21894;SDS011;11112;51.270;7.224;2023-03-31T14:40:58;8.05;;;2.10;;
21894;SDS011;11112;51.270;7.224;2023-03-31T14:43:28;6.50;;;2.10;;
21894;SDS011;11112;51.270;7.224;2023-03-31T14:45:59;7.60;;;2.00;;
21894;SDS011;11112;51.270;7.224;2023-03-31T14:48:31;8.70;;;2.00;;
21894;SDS011;11112;51.270;7.224;2023-03-31T14:53:42;6.60;;;1.40;;
21894;SDS011;11112;51.270;7.224;2023-03-31T14:56:14;9.38;;;1.90;;
21894;SDS011;11112;51.270;7.224;2023-03-31T14:58:55;8.15;;;1.45;;
21894;SDS011;11112;51.270;7.224;2023-03-31T15:01:24;7.22;;;1.42;;
21894;SDS011;11112;51.270;7.224;2023-03-31T15:03:58;6.43;;;1.40;;
21894;SDS011;11112;51.270;7.224;2023-03-31T15:06:26;7.25;;;1.52;;
21894;SDS011;11112;51.270;7.224;2023-03-31T15:08:57;5.50;;;1.42;;
21894;SDS011;11112;51.270;7.224;2023-03-31T15:11:30;7.50;;;1.25;;
21894;SDS011;11112;51.270;7.224;2023-03-31T15:13:58;5.47;;;1.35;;
21894;SDS011;11112;51.270;7.224;2023-03-31T15:16:34;7.72;;;1.20;;
21894;SDS011;11112;51.270;7.224;2023-03-31T15:19:09;6.95;;;1.27;;
21894;SDS011;11112;51.270;7.224;2023-03-31T15:21:40;7.32;;;1.30;;
21894;SDS011;11112;51.270;7.224;2023-03-31T15:24:09;5.13;;;1.30;;
21894;SDS011;11112;51.270;7.224;2023-03-31T15:26:41;5.85;;;1.42;;
21894;SDS011;11112;51.270;7.224;2023-03-31T15:29:13;4.68;;;1.13;;
21894;SDS011;11112;51.270;7.224;2023-03-31T15:31:45;7.82;;;1.90;;
21894;SDS011;11112;51.270;7.224;2023-03-31T15:34:13;9.18;;;2.00;;
21894;SDS011;11112;51.270;7.224;2023-03-31T15:36:46;9.05;;;2.05;;
21894;SDS011;11112;51.270;7.224;2023-03-31T15:39:13;8.60;;;1.60;;
21894;SDS011;11112;51.270;7.224;2023-03-31T15:41:42;9.68;;;1.88;;
21894;SDS011;11112;51.270;7.224;2023-03-31T15:47:07;8.68;;;1.80;;
21894;SDS011;11112;51.270;7.224;2023-03-31T15:49:49;9.13;;;2.17;;
21894;SDS011;11112;51.270;7.224;2023-03-31T15:52:23;5.72;;;1.55;;
21894;SDS011;11112;51.270;7.224;2023-03-31T15:54:57;7.90;;;1.50;;
21894;SDS011;11112;51.270;7.224;2023-03-31T15:57:36;6.70;;;1.55;;
21894;SDS011;11112;51.270;7.224;2023-03-31T16:00:03;9.27;;;1.50;;
21894;SDS011;11112;51.270;7.224;2023-03-31T16:02:37;8.25;;;1.65;;
21894;SDS011;11112;51.270;7.224;2023-03-31T16:05:15;8.02;;;1.60;;
21894;SDS011;11112;51.270;7.224;2023-03-31T16:07:55;7.35;;;1.63;;
21894;SDS011;11112;51.270;7.224;2023-03-31T16:10:25;4.65;;;1.58;;